Time;durP1;ratioP1;P1;durP2;ratioP2;P2;SDS_P1;SDS_P2;PMS_P1;PMS_P2;Temp;Humidity;BMP_temperature;BMP_pressure;BME280_temperature;BME280_humidity;BME280_pressure;Samples;Min_cycle;Max_cycle;Signal;HPM_P1;HPM_P2
2022/03/04 00:00:26;;;;;;;6.90;4.20;;;-1.20;99.90;;;;;;5041379;28;20453;-71
2022/03/04 00:02:52;;;;;;;8.48;3.80;;;-1.30;99.90;;;;;;5042801;28;20033;-71
2022/03/04 00:05:18;;;;;;;7.80;3.72;;;-1.30;99.90;;;;;;5037611;28;20494;-70
2022/03/04 00:07:43;;;;;;;8.35;3.03;;;-1.20;99.90;;;;;;5043282;28;20024;-71
2022/03/04 00:10:09;;;;;;;7.13;3.15;;;-1.20;99.90;;;;;;5045751;28;20718;-70
2022/03/04 00:12:35;;;;;;;9.52;3.47;;;-1.30;99.90;;;;;;5041780;28;20029;-70
2022/03/04 00:15:00;;;;;;;6.60;2.95;;;-1.50;99.90;;;;;;5040836;28;20561;-70
2022/03/04 00:17:26;;;;;;;12.10;4.15;;;-1.50;99.90;;;;;;5047486;28;20048;-70
2022/03/04 00:19:51;;;;;;;8.15;2.72;;;-1.60;99.90;;;;;;5041974;28;20029;-70
2022/03/04 00:22:17;;;;;;;8.10;4.03;;;-1.60;99.90;;;;;;5040696;28;20030;-70
2022/03/04 00:24:43;;;;;;;11.13;3.72;;;-1.70;99.90;;;;;;5048188;28;20025;-71
2022/03/04 00:27:08;;;;;;;11.13;3.50;;;-1.70;99.90;;;;;;5045358;28;20021;-71
2022/03/04 00:29:34;;;;;;;6.22;3.03;;;-1.70;99.90;;;;;;5040953;28;20048;-71
2022/03/04 00:32:00;;;;;;;15.98;2.75;;;-1.80;99.90;;;;;;5043270;28;20138;-71
2022/03/04 00:34:25;;;;;;;8.60;3.67;;;-1.90;99.90;;;;;;5050533;28;20021;-71
2022/03/04 00:36:52;;;;;;;11.65;3.28;;;-2.00;99.90;;;;;;5049048;28;20434;-71
2022/03/04 00:39:17;;;;;;;6.35;3.38;;;-2.00;99.90;;;;;;5046122;28;20128;-71
2022/03/04 00:41:43;;;;;;;5.93;2.83;;;-2.00;99.90;;;;;;5042412;28;20039;-70
2022/03/04 00:44:09;;;;;;;9.52;3.72;;;-2.10;99.90;;;;;;5042238;28;20021;-70
2022/03/04 00:46:36;;;;;;;13.85;4.40;;;-2.10;99.90;;;;;;5043652;28;20107;-70
2022/03/04 00:49:03;;;;;;;10.20;4.25;;;-2.10;99.90;;;;;;5045268;28;20646;-70
2022/03/04 00:51:28;;;;;;;14.00;5.00;;;-2.10;99.90;;;;;;5049018;28;20029;-70
2022/03/04 00:53:54;;;;;;;6.50;3.35;;;-2.00;99.90;;;;;;5047785;28;20090;-70
2022/03/04 00:56:20;;;;;;;8.38;3.55;;;-1.90;99.90;;;;;;5046205;28;20497;-71
2022/03/04 00:58:46;;;;;;;8.68;3.55;;;-1.90;99.90;;;;;;5045572;28;20128;-70
2022/03/04 01:01:12;;;;;;;9.25;2.40;;;-1.90;99.90;;;;;;5043330;28;20462;-70
2022/03/04 01:03:37;;;;;;;7.95;3.53;;;-1.90;99.90;;;;;;5045437;28;20032;-71
2022/03/04 01:06:08;;;;;;;17.25;4.63;;;-2.10;99.90;;;;;;5049340;28;20096;-71
2022/03/04 01:08:34;;;;;;;13.65;3.03;;;-2.20;99.90;;;;;;5039159;28;20428;-71
2022/03/04 01:11:00;;;;;;;11.38;3.35;;;-2.20;99.90;;;;;;5042459;28;20033;-71
2022/03/04 01:13:26;;;;;;;16.25;4.03;;;-2.20;99.90;;;;;;5035311;28;20393;-70
2022/03/04 01:15:52;;;;;;;9.68;3.03;;;-2.20;99.90;;;;;;5047755;28;20056;-70
2022/03/04 01:18:17;;;;;;;6.78;3.33;;;-2.30;99.90;;;;;;5041908;28;20440;-72
2022/03/04 01:20:43;;;;;;;6.93;2.58;;;-2.30;99.90;;;;;;5041456;28;20020;-71
2022/03/04 01:23:09;;;;;;;10.82;3.92;;;-2.10;99.90;;;;;;5038858;28;20029;-71
2022/03/04 01:25:35;;;;;;;14.73;3.58;;;-2.20;99.90;;;;;;5042925;28;20026;-71
2022/03/04 01:28:01;;;;;;;8.90;3.63;;;-2.20;99.90;;;;;;5051326;28;20032;-71
2022/03/04 01:30:27;;;;;;;7.13;2.97;;;-2.20;99.90;;;;;;5040426;28;20042;-71
2022/03/04 01:32:52;;;;;;;6.00;2.97;;;-2.20;99.90;;;;;;5041834;28;20086;-71
2022/03/04 01:35:18;;;;;;;7.82;2.90;;;-2.30;99.90;;;;;;5042090;28;20753;-70
2022/03/04 01:37:44;;;;;;;10.18;3.53;;;-2.30;99.90;;;;;;5039763;28;20029;-71
2022/03/04 01:40:11;;;;;;;7.65;3.45;;;-2.30;99.90;;;;;;5039897;28;20420;-70
2022/03/04 01:42:38;;;;;;;8.27;4.38;;;-2.30;99.90;;;;;;5045598;28;20465;-71
2022/03/04 01:45:06;;;;;;;6.93;2.40;;;-2.40;99.90;;;;;;5038329;28;20087;-70
2022/03/04 01:47:32;;;;;;;11.00;3.80;;;-2.40;99.90;;;;;;5039576;28;20478;-70
2022/03/04 01:49:58;;;;;;;7.53;3.55;;;-2.40;99.90;;;;;;5039277;28;20028;-70
2022/03/04 01:52:24;;;;;;;7.43;2.90;;;-2.40;99.90;;;;;;5036136;28;20834;-69
2022/03/04 01:54:50;;;;;;;13.82;3.78;;;-2.40;99.90;;;;;;5029406;28;20060;-70
2022/03/04 01:57:15;;;;;;;9.25;3.47;;;-2.40;99.90;;;;;;5041651;28;20112;-69
2022/03/04 01:59:41;;;;;;;11.75;3.28;;;-2.50;99.90;;;;;;5034701;28;20037;-69
2022/03/04 02:02:07;;;;;;;3.22;1.95;;;-2.40;99.90;;;;;;5037165;28;20029;-69
2022/03/04 02:04:34;;;;;;;7.45;2.85;;;-2.20;99.90;;;;;;5030883;28;20032;-69
2022/03/04 02:07:00;;;;;;;9.60;3.67;;;-2.30;99.90;;;;;;5032758;28;20037;-69
2022/03/04 02:09:26;;;;;;;3.92;2.13;;;-2.30;99.90;;;;;;5036679;28;20032;-69
2022/03/04 02:11:51;;;;;;;16.70;3.10;;;-2.40;99.90;;;;;;5039870;28;20045;-69
2022/03/04 02:14:17;;;;;;;4.43;2.30;;;-2.40;99.90;;;;;;5033311;28;20481;-69
2022/03/04 02:16:50;;;;;;;6.25;2.95;;;-2.60;99.90;;;;;;5039574;28;20032;-70
2022/03/04 02:19:17;;;;;;;6.93;2.33;;;-2.70;99.90;;;;;;5035892;28;20029;-70
2022/03/04 02:22:03;;;;;;;11.95;3.40;;;-2.70;99.90;;;;;;5031674;28;20061;-70
2022/03/04 02:24:30;;;;;;;7.10;3.63;;;-2.80;99.90;;;;;;5039770;28;20036;-70
2022/03/04 02:26:59;;;;;;;11.65;3.65;;;-2.80;99.90;;;;;;5044119;28;20040;-70
2022/03/04 02:29:26;;;;;;;6.85;3.00;;;-2.80;99.90;;;;;;5045578;28;20037;-70
2022/03/04 02:31:53;;;;;;;5.07;2.70;;;-2.70;99.90;;;;;;5039407;28;20723;-70
2022/03/04 02:34:19;;;;;;;14.10;4.30;;;-2.80;99.90;;;;;;5041890;28;20048;-70
2022/03/04 02:36:46;;;;;;;13.18;2.83;;;-2.80;99.90;;;;;;5043924;28;20033;-70
2022/03/04 02:39:11;;;;;;;9.98;5.57;;;-2.70;99.90;;;;;;5041293;28;20120;-70
2022/03/04 02:41:38;;;;;;;7.82;3.30;;;-2.70;99.90;;;;;;5043566;28;20144;-70
2022/03/04 02:44:09;;;;;;;7.18;2.60;;;-2.70;99.90;;;;;;5033351;28;20030;-69
2022/03/04 02:46:35;;;;;;;11.02;2.95;;;-2.80;99.90;;;;;;5047900;28;20018;-69
2022/03/04 02:49:01;;;;;;;5.07;2.67;;;-3.00;99.90;;;;;;5039837;28;20099;-69
2022/03/04 02:51:26;;;;;;;2.95;1.85;;;-3.00;99.90;;;;;;5045039;28;20040;-69
2022/03/04 02:53:52;;;;;;;5.32;2.58;;;-3.10;99.90;;;;;;5040986;28;20040;-69
2022/03/04 02:56:18;;;;;;;7.88;3.00;;;-3.10;99.90;;;;;;5042940;28;20025;-69
2022/03/04 02:58:45;;;;;;;6.43;3.78;;;-3.10;99.90;;;;;;5039201;28;20090;-69
2022/03/04 03:01:10;;;;;;;7.65;3.33;;;-3.00;99.90;;;;;;5044341;28;20031;-69
2022/03/04 03:03:37;;;;;;;15.45;3.20;;;-3.00;99.90;;;;;;5038050;28;20029;-69
2022/03/04 03:06:03;;;;;;;3.45;2.28;;;-2.60;99.90;;;;;;5043582;28;20032;-69
2022/03/04 03:08:30;;;;;;;6.55;3.17;;;-2.50;99.90;;;;;;5042899;28;20112;-70
2022/03/04 03:10:56;;;;;;;9.48;2.88;;;-2.30;99.90;;;;;;5045694;28;20104;-69
2022/03/04 03:13:22;;;;;;;6.30;2.90;;;-2.40;99.90;;;;;;5046741;28;20025;-69
2022/03/04 03:15:48;;;;;;;5.53;2.67;;;-2.70;99.90;;;;;;5038618;28;20029;-69
2022/03/04 03:18:14;;;;;;;5.33;2.43;;;-2.90;99.90;;;;;;5044621;28;20040;-69
2022/03/04 03:20:39;;;;;;;5.25;2.90;;;-3.00;99.90;;;;;;5037641;28;20029;-69
2022/03/04 03:23:05;;;;;;;7.03;3.25;;;-3.00;99.90;;;;;;5041122;28;19938;-69
2022/03/04 03:25:31;;;;;;;5.65;2.85;;;-2.90;99.90;;;;;;5045443;28;20033;-69
2022/03/04 03:27:56;;;;;;;6.75;3.90;;;-3.00;99.90;;;;;;5036364;28;20049;-69
2022/03/04 03:30:22;;;;;;;9.00;2.72;;;-3.10;99.90;;;;;;5039849;28;20060;-69
2022/03/04 03:32:48;;;;;;;8.13;3.50;;;-3.20;99.90;;;;;;5041971;28;20132;-69
2022/03/04 03:35:13;;;;;;;11.32;5.38;;;-3.20;99.90;;;;;;5054041;28;20075;-69
2022/03/04 03:37:39;;;;;;;16.05;4.32;;;-3.20;99.90;;;;;;5043381;28;20211;-69
2022/03/04 03:40:07;;;;;;;5.60;2.60;;;-3.30;99.90;;;;;;5043827;28;20059;-69
2022/03/04 03:42:33;;;;;;;7.20;3.22;;;-3.30;99.90;;;;;;5041778;28;20029;-69
2022/03/04 03:44:58;;;;;;;7.18;3.25;;;-3.30;99.90;;;;;;5043352;28;20037;-69
2022/03/04 03:47:24;;;;;;;13.82;2.30;;;-3.30;99.90;;;;;;5045726;28;20381;-69
2022/03/04 03:49:50;;;;;;;7.47;2.42;;;-3.30;99.90;;;;;;5046256;28;20065;-69
2022/03/04 03:52:16;;;;;;;15.80;4.75;;;-3.30;99.90;;;;;;5041775;28;20032;-69
2022/03/04 03:54:41;;;;;;;11.35;3.25;;;-3.30;99.90;;;;;;5035483;28;20036;-69
2022/03/04 03:57:07;;;;;;;11.32;3.78;;;-3.30;99.90;;;;;;5041867;28;20425;-69
2022/03/04 03:59:33;;;;;;;6.65;2.83;;;-3.40;99.90;;;;;;5039464;28;20033;-69
2022/03/04 04:02:02;;;;;;;9.60;2.67;;;-3.40;99.90;;;;;;5044125;28;20104;-69
2022/03/04 04:04:33;;;;;;;5.70;1.77;;;-3.40;99.90;;;;;;5041595;28;20024;-69
2022/03/04 04:07:07;;;;;;;7.22;3.10;;;-3.50;99.90;;;;;;5047900;28;20535;-69
2022/03/04 04:09:33;;;;;;;5.20;2.60;;;-3.50;99.90;;;;;;5042369;28;20025;-70
2022/03/04 04:11:59;;;;;;;6.38;2.92;;;-3.60;99.90;;;;;;5041588;28;20066;-69
2022/03/04 04:14:26;;;;;;;5.38;2.67;;;-3.60;99.90;;;;;;5059363;28;20020;-69
2022/03/04 04:16:52;;;;;;;7.47;3.05;;;-3.50;99.90;;;;;;5042034;28;20044;-69
2022/03/04 04:19:18;;;;;;;9.95;3.60;;;-3.50;99.90;;;;;;5044004;28;20500;-69
2022/03/04 04:21:44;;;;;;;5.30;2.60;;;-3.40;99.90;;;;;;5039902;28;20034;-69
2022/03/04 04:24:09;;;;;;;6.38;3.50;;;-3.30;99.90;;;;;;5041475;28;20025;-69
2022/03/04 04:26:35;;;;;;;7.63;2.63;;;-3.30;99.90;;;;;;5042858;28;20021;-69
2022/03/04 04:29:01;;;;;;;7.82;3.80;;;-3.40;99.90;;;;;;5031653;28;20049;-69
2022/03/04 04:31:27;;;;;;;8.05;2.33;;;-3.40;99.90;;;;;;5035773;28;20026;-69
2022/03/04 04:33:53;;;;;;;10.70;2.75;;;-3.60;99.90;;;;;;5038681;28;20029;-69
2022/03/04 04:36:19;;;;;;;6.38;2.83;;;-3.50;99.90;;;;;;5040681;28;20120;-69
2022/03/04 04:38:45;;;;;;;6.63;2.60;;;-3.50;99.90;;;;;;5049074;28;20134;-69
2022/03/04 04:41:11;;;;;;;6.72;2.75;;;-3.30;99.90;;;;;;5050695;28;20061;-69
2022/03/04 04:43:37;;;;;;;4.90;2.90;;;-3.30;99.90;;;;;;5042332;28;20018;-69
2022/03/04 04:46:04;;;;;;;8.82;3.67;;;-3.30;99.90;;;;;;5044373;28;20026;-69
2022/03/04 04:48:30;;;;;;;8.70;2.78;;;-3.20;99.90;;;;;;5040360;28;20546;-69
2022/03/04 04:50:57;;;;;;;6.65;2.67;;;-3.10;99.90;;;;;;5045695;28;20021;-69
2022/03/04 04:53:23;;;;;;;5.57;2.95;;;-3.20;99.90;;;;;;5038700;28;20382;-69
2022/03/04 04:55:48;;;;;;;5.18;2.78;;;-3.30;99.90;;;;;;5042618;28;20107;-69
2022/03/04 04:58:14;;;;;;;6.80;2.38;;;-3.40;99.90;;;;;;5043662;28;20029;-70
2022/03/04 05:00:40;;;;;;;7.20;3.90;;;-3.50;99.90;;;;;;5041650;28;20493;-69
2022/03/04 05:03:06;;;;;;;7.80;3.42;;;-3.60;99.90;;;;;;5040616;28;20473;-71
2022/03/04 05:05:31;;;;;;;8.93;4.28;;;-3.50;99.90;;;;;;5040441;28;20029;-71
2022/03/04 05:07:57;;;;;;;6.78;3.67;;;-3.50;99.90;;;;;;5040862;28;20056;-70
2022/03/04 05:10:23;;;;;;;7.00;2.40;;;-3.60;99.90;;;;;;5038933;28;20028;-71
2022/03/04 05:12:48;;;;;;;10.95;3.50;;;-3.60;99.90;;;;;;5048172;28;20029;-70
2022/03/04 05:15:14;;;;;;;6.43;3.20;;;-3.70;99.90;;;;;;5040103;28;20036;-70
2022/03/04 05:17:40;;;;;;;4.13;2.55;;;-3.70;99.90;;;;;;5040128;28;20052;-70
2022/03/04 05:20:06;;;;;;;9.00;3.55;;;-3.70;99.90;;;;;;5038224;28;20464;-70
2022/03/04 05:22:33;;;;;;;2.63;1.58;;;-3.80;99.90;;;;;;5043469;28;20026;-70
2022/03/04 05:24:59;;;;;;;4.55;2.22;;;-3.90;99.90;;;;;;5041855;28;20116;-70
2022/03/04 05:27:24;;;;;;;4.93;2.00;;;-3.80;99.90;;;;;;5040965;28;20032;-70
2022/03/04 05:29:50;;;;;;;5.07;2.35;;;-3.80;99.90;;;;;;5041743;28;20528;-70
2022/03/04 05:32:16;;;;;;;7.88;3.22;;;-3.80;99.90;;;;;;5041125;28;20029;-70
2022/03/04 05:34:41;;;;;;;5.00;2.78;;;-3.90;99.90;;;;;;5042704;28;20028;-70
2022/03/04 05:37:07;;;;;;;7.25;2.25;;;-3.70;99.90;;;;;;5041367;28;20029;-70
2022/03/04 05:39:33;;;;;;;9.25;2.80;;;-3.60;99.90;;;;;;5042962;28;20033;-70
2022/03/04 05:41:58;;;;;;;6.35;2.80;;;-3.60;99.90;;;;;;5040349;28;20516;-70
2022/03/04 05:44:24;;;;;;;10.23;3.70;;;-3.70;99.90;;;;;;5043068;28;20025;-70
2022/03/04 05:46:49;;;;;;;7.35;2.40;;;-3.70;99.90;;;;;;5040922;28;20020;-70
2022/03/04 05:49:15;;;;;;;8.45;3.40;;;-3.60;99.90;;;;;;5037907;28;20024;-70
2022/03/04 05:51:41;;;;;;;4.38;2.45;;;-3.70;99.90;;;;;;5034303;28;20040;-70
2022/03/04 05:54:06;;;;;;;4.97;3.28;;;-3.70;99.90;;;;;;5039356;28;20037;-70
2022/03/04 05:56:32;;;;;;;5.43;2.85;;;-3.70;99.90;;;;;;5043036;28;20036;-70
2022/03/04 05:58:58;;;;;;;5.88;2.72;;;-3.60;99.90;;;;;;5036757;28;20044;-70
2022/03/04 06:01:23;;;;;;;5.43;3.15;;;-3.60;99.90;;;;;;5041428;28;20393;-71
2022/03/04 06:03:49;;;;;;;6.00;3.97;;;-3.60;99.90;;;;;;5040159;28;20028;-70
2022/03/04 06:06:15;;;;;;;6.03;2.38;;;-3.50;99.90;;;;;;5038333;28;20158;-69
2022/03/04 06:08:41;;;;;;;9.20;3.20;;;-3.50;99.90;;;;;;5035431;28;20048;-70
2022/03/04 06:11:11;;;;;;;12.65;3.75;;;-3.70;99.90;;;;;;5036686;28;20055;-71
2022/03/04 06:13:37;;;;;;;16.90;4.28;;;-3.70;99.90;;;;;;5035199;28;20059;-69
2022/03/04 06:16:04;;;;;;;12.88;4.45;;;-3.60;99.90;;;;;;5034721;28;20025;-69
2022/03/04 06:18:29;;;;;;;9.45;3.45;;;-3.50;99.90;;;;;;5038895;28;20029;-69
2022/03/04 06:20:55;;;;;;;8.13;3.60;;;-3.60;99.90;;;;;;5038450;28;20373;-70
2022/03/04 06:23:21;;;;;;;7.25;2.70;;;-3.50;99.90;;;;;;5037312;28;20035;-70
2022/03/04 06:25:47;;;;;;;11.98;2.65;;;-3.30;99.90;;;;;;5038680;28;20726;-69
2022/03/04 06:28:13;;;;;;;6.55;3.42;;;-3.20;99.90;;;;;;5034997;28;20025;-69
2022/03/04 06:30:39;;;;;;;6.47;3.65;;;-3.40;99.90;;;;;;5039020;28;20047;-70
2022/03/04 06:35:53;;;;;;;5.93;2.80;;;-3.50;99.90;;;;;;5044343;28;20043;-69
2022/03/04 06:38:19;;;;;;;7.75;2.72;;;-3.60;99.90;;;;;;5040624;28;20037;-69
2022/03/04 06:40:46;;;;;;;8.95;4.50;;;-3.60;99.90;;;;;;5047751;28;20055;-69
2022/03/04 06:43:13;;;;;;;9.20;3.42;;;-3.60;99.90;;;;;;5038061;28;20577;-69
2022/03/04 06:45:46;;;;;;;7.82;3.78;;;-3.60;99.90;;;;;;5039054;28;20053;-69
2022/03/04 06:48:13;;;;;;;6.68;3.80;;;-3.40;99.90;;;;;;5043152;28;20370;-70
2022/03/04 06:50:38;;;;;;;13.13;4.03;;;-3.40;99.90;;;;;;5039830;28;20531;-69
2022/03/04 06:53:05;;;;;;;10.20;4.05;;;-3.40;99.90;;;;;;5038236;28;20021;-70
2022/03/04 06:55:31;;;;;;;7.43;3.78;;;-3.50;99.90;;;;;;5039582;28;20138;-69
2022/03/04 06:57:57;;;;;;;19.30;3.88;;;-3.50;99.90;;;;;;5035114;28;20099;-69
2022/03/04 07:00:24;;;;;;;8.90;4.25;;;-3.50;99.90;;;;;;5041880;28;20619;-69
2022/03/04 07:02:51;;;;;;;9.02;3.63;;;-3.40;99.90;;;;;;5038194;28;20032;-69
2022/03/04 07:05:17;;;;;;;8.55;3.88;;;-3.40;99.90;;;;;;5038538;28;20366;-69
2022/03/04 07:07:42;;;;;;;8.23;3.90;;;-3.30;99.90;;;;;;5037577;28;20029;-69
2022/03/04 07:10:08;;;;;;;8.77;4.50;;;-3.30;99.90;;;;;;5040925;28;20037;-69
2022/03/04 07:12:35;;;;;;;14.68;4.00;;;-3.20;99.90;;;;;;5046294;28;20513;-69
2022/03/04 07:15:01;;;;;;;4.78;2.90;;;-3.00;99.90;;;;;;5040114;28;20529;-69
2022/03/04 07:17:27;;;;;;;6.45;3.72;;;-2.80;99.90;;;;;;5038362;28;20028;-69
2022/03/04 07:19:52;;;;;;;6.65;2.60;;;-2.80;99.90;;;;;;5040955;28;20028;-70
2022/03/04 07:22:18;;;;;;;11.20;4.13;;;-2.70;99.90;;;;;;5033661;28;20036;-70
2022/03/04 07:24:43;;;;;;;10.35;3.08;;;-2.50;99.90;;;;;;5045325;28;20039;-69
2022/03/04 07:27:09;;;;;;;8.25;3.10;;;-2.40;99.90;;;;;;5045724;28;20091;-70
2022/03/04 07:29:35;;;;;;;4.97;2.90;;;-2.30;99.90;;;;;;5041615;28;20442;-70
2022/03/04 07:32:01;;;;;;;16.08;5.85;;;-2.30;99.90;;;;;;5036869;28;20060;-69
2022/03/04 07:34:26;;;;;;;8.85;4.80;;;-2.10;99.90;;;;;;5048428;28;20025;-69
2022/03/04 07:36:54;;;;;;;9.82;4.15;;;-1.90;99.90;;;;;;5042797;28;20048;-69
2022/03/04 07:39:19;;;;;;;9.20;4.40;;;-1.60;99.90;;;;;;5043489;28;20037;-69
2022/03/04 07:41:48;;;;;;;14.73;5.50;;;-1.40;99.90;;;;;;5042766;28;20029;-69
2022/03/04 07:44:14;;;;;;;12.98;4.72;;;-1.20;99.90;;;;;;5048600;28;20024;-69
2022/03/04 07:46:40;;;;;;;23.27;4.95;;;-1.00;99.90;;;;;;5038905;28;20045;-69
2022/03/04 07:49:06;;;;;;;18.75;6.28;;;-0.90;99.90;;;;;;5040988;28;20103;-69
2022/03/04 07:51:32;;;;;;;14.35;4.22;;;-0.80;99.90;;;;;;5043582;28;20033;-69
2022/03/04 07:53:57;;;;;;;10.73;5.25;;;-0.70;99.90;;;;;;5046132;28;20082;-69
2022/03/04 07:56:23;;;;;;;16.52;4.15;;;-0.70;99.90;;;;;;5035955;28;20041;-69
2022/03/04 07:58:49;;;;;;;10.32;6.13;;;-0.60;99.90;;;;;;5038247;28;20025;-70
2022/03/04 08:01:15;;;;;;;24.75;8.40;;;-0.60;99.90;;;;;;5041096;28;20044;-70
2022/03/04 08:03:42;;;;;;;27.20;5.90;;;-0.40;99.90;;;;;;5046388;28;20766;-70
2022/03/04 08:06:08;;;;;;;15.65;3.55;;;-0.30;99.90;;;;;;5044361;28;20021;-69
2022/03/04 08:08:34;;;;;;;19.65;7.63;;;-0.20;99.90;;;;;;5045312;28;20025;-69
2022/03/04 08:11:00;;;;;;;8.52;4.90;;;-0.10;99.90;;;;;;5040017;28;20548;-69
2022/03/04 08:13:26;;;;;;;17.38;7.88;;;0.10;99.90;;;;;;5054923;28;20088;-70
2022/03/04 08:15:52;;;;;;;10.93;5.90;;;0.10;99.90;;;;;;5040395;28;20029;-70
2022/03/04 08:18:18;;;;;;;14.40;3.88;;;0.30;99.90;;;;;;5044495;28;20123;-70
2022/03/04 08:20:43;;;;;;;17.98;7.97;;;0.30;99.90;;;;;;5032303;28;20033;-70
2022/03/04 08:23:11;;;;;;;12.60;4.85;;;0.50;99.90;;;;;;5039013;28;20025;-70
2022/03/04 08:25:38;;;;;;;12.55;4.97;;;0.50;99.90;;;;;;5046814;28;20021;-70
2022/03/04 08:28:04;;;;;;;21.85;8.05;;;0.70;99.90;;;;;;5036135;28;20112;-70
2022/03/04 08:30:29;;;;;;;13.57;5.20;;;0.80;99.90;;;;;;5047842;28;20128;-71
2022/03/04 08:32:55;;;;;;;11.73;4.20;;;1.00;99.90;;;;;;5044462;28;20025;-70
2022/03/04 08:35:21;;;;;;;20.50;7.07;;;1.00;99.90;;;;;;5056851;28;20028;-70
2022/03/04 08:37:47;;;;;;;17.33;5.28;;;1.20;99.90;;;;;;5047707;28;20913;-70
2022/03/04 08:40:13;;;;;;;10.50;5.53;;;1.40;99.90;;;;;;5037559;28;20034;-70
2022/03/04 08:42:40;;;;;;;24.92;7.10;;;1.60;99.90;;;;;;5043208;28;20021;-70
2022/03/04 08:45:07;;;;;;;29.42;9.68;;;1.90;99.90;;;;;;5046974;28;20516;-70
2022/03/04 08:47:33;;;;;;;24.63;9.82;;;2.20;99.90;;;;;;5045963;28;20611;-70
2022/03/04 08:49:58;;;;;;;16.40;5.55;;;2.50;99.90;;;;;;5041948;28;20060;-70
2022/03/04 08:52:24;;;;;;;17.63;6.10;;;3.10;99.90;;;;;;5041120;28;20109;-71
2022/03/04 08:54:50;;;;;;;13.27;4.38;;;4.10;99.90;;;;;;5045226;28;20086;-71
2022/03/04 08:57:15;;;;;;;11.77;4.03;;;5.30;99.90;;;;;;5038840;28;20029;-71
2022/03/04 08:59:41;;;;;;;18.20;5.95;;;6.00;99.90;;;;;;5043848;28;20069;-71
2022/03/04 09:02:08;;;;;;;14.55;5.00;;;6.40;99.90;;;;;;5041476;28;20036;-71
2022/03/04 09:04:33;;;;;;;8.57;3.78;;;6.70;99.90;;;;;;5044437;28;20029;-71
2022/03/04 09:06:59;;;;;;;14.43;4.75;;;7.00;99.90;;;;;;5041980;28;20095;-71
2022/03/04 09:09:25;;;;;;;17.70;4.55;;;7.30;99.90;;;;;;5042254;28;20429;-71
2022/03/04 09:11:51;;;;;;;13.57;4.72;;;8.50;99.90;;;;;;5042323;28;20036;-71
2022/03/04 09:14:19;;;;;;;18.30;5.57;;;7.50;99.90;;;;;;5044252;28;20025;-71
2022/03/04 09:16:45;;;;;;;14.68;5.35;;;7.20;99.90;;;;;;5044393;28;20450;-71
2022/03/04 09:19:11;;;;;;;13.40;5.43;;;7.80;99.90;;;;;;5039453;28;20032;-71
2022/03/04 09:21:36;;;;;;;8.75;4.13;;;7.20;99.90;;;;;;5042986;28;20033;-71
2022/03/04 09:24:04;;;;;;;17.58;6.28;;;7.10;99.90;;;;;;5041076;28;20080;-71
2022/03/04 09:26:30;;;;;;;15.75;6.43;;;7.60;99.90;;;;;;5046390;28;20454;-71
2022/03/04 09:28:56;;;;;;;18.63;6.10;;;7.30;99.90;;;;;;5035989;28;20042;-71
2022/03/04 09:31:21;;;;;;;18.25;6.15;;;7.80;99.90;;;;;;5039815;28;20107;-71
2022/03/04 09:33:47;;;;;;;22.23;6.25;;;8.40;99.90;;;;;;5043927;28;20025;-71
2022/03/04 09:36:14;;;;;;;17.40;6.78;;;8.30;99.90;;;;;;5042183;28;20112;-71
2022/03/04 09:38:40;;;;;;;17.45;6.05;;;7.30;99.90;;;;;;5045457;28;20150;-71
2022/03/04 09:41:06;;;;;;;18.60;7.32;;;8.90;99.90;;;;;;5034110;28;20042;-71
2022/03/04 09:43:32;;;;;;;12.05;4.85;;;9.30;99.90;;;;;;5044972;28;20045;-71
2022/03/04 09:45:58;;;;;;;16.52;5.43;;;10.00;97.80;;;;;;5040014;28;20047;-71
2022/03/04 09:48:24;;;;;;;19.60;5.90;;;10.60;97.00;;;;;;5039257;28;20062;-71
2022/03/04 09:50:50;;;;;;;22.17;8.25;;;8.60;99.90;;;;;;5037985;28;20040;-71
2022/03/04 09:53:16;;;;;;;18.23;7.10;;;7.40;99.90;;;;;;5037998;28;20123;-72
2022/03/04 09:55:43;;;;;;;18.48;7.13;;;7.70;99.90;;;;;;5050178;28;20051;-71
2022/03/04 09:58:17;;;;;;;18.45;6.85;;;7.10;99.90;;;;;;5040350;28;20378;-71
2022/03/04 10:00:44;;;;;;;16.85;7.05;;;7.80;99.90;;;;;;5040607;28;20115;-71
2022/03/04 10:03:28;;;;;;;17.67;6.45;;;7.60;99.90;;;;;;5042510;28;20075;-71
2022/03/04 10:05:56;;;;;;;20.50;6.63;;;7.80;99.90;;;;;;5044976;28;20385;-71
2022/03/04 10:08:23;;;;;;;22.67;7.70;;;8.10;99.90;;;;;;5038253;28;20030;-71
2022/03/04 10:10:53;;;;;;;17.70;6.07;;;7.50;99.90;;;;;;5041347;28;20519;-71
2022/03/04 10:13:41;;;;;;;18.55;5.93;;;7.20;99.90;;;;;;5038677;28;20563;-71
2022/03/04 10:16:06;;;;;;;6.63;2.88;;;7.50;99.90;;;;;;5037222;28;20519;-71
2022/03/04 10:18:32;;;;;;;23.48;7.07;;;8.60;99.80;;;;;;5037615;28;20077;-71
2022/03/04 10:20:58;;;;;;;11.77;4.25;;;8.20;99.40;;;;;;5039960;28;20037;-71
2022/03/04 10:23:26;;;;;;;16.83;4.78;;;8.60;99.90;;;;;;5040940;28;20033;-71
2022/03/04 10:25:53;;;;;;;18.85;6.15;;;8.70;98.30;;;;;;5040323;28;20029;-71
2022/03/04 10:28:23;;;;;;;15.15;4.78;;;8.50;97.30;;;;;;5027135;28;20021;-71
2022/03/04 10:30:50;;;;;;;13.00;5.45;;;8.10;99.20;;;;;;5028724;28;20136;-71
2022/03/04 10:33:19;;;;;;;13.20;5.63;;;9.30;97.20;;;;;;5032517;28;20029;-71
2022/03/04 10:35:46;;;;;;;13.45;4.88;;;9.60;97.80;;;;;;5034225;28;20465;-71
2022/03/04 10:38:22;;;;;;;20.45;6.30;;;11.20;96.10;;;;;;5030286;28;20041;-71
2022/03/04 10:40:49;;;;;;;16.45;5.22;;;10.50;94.20;;;;;;5029132;28;20128;-71
2022/03/04 10:43:23;;;;;;;17.95;5.22;;;11.50;94.70;;;;;;5037435;28;20028;-71
2022/03/04 10:46:01;;;;;;;14.80;5.72;;;13.40;91.40;;;;;;5037271;28;20034;-71
2022/03/04 10:48:28;;;;;;;21.15;6.05;;;11.80;91.30;;;;;;5027835;28;20028;-71
2022/03/04 10:50:55;;;;;;;23.10;7.15;;;11.10;91.40;;;;;;5028102;28;20025;-71
2022/03/04 10:53:29;;;;;;;15.38;5.35;;;9.90;93.50;;;;;;5033149;28;20025;-71
2022/03/04 10:56:07;;;;;;;16.65;6.93;;;9.80;93.60;;;;;;5030041;28;20033;-70
2022/03/04 10:58:37;;;;;;;17.90;7.03;;;9.90;94.70;;;;;;5044088;28;20068;-71
2022/03/04 11:01:09;;;;;;;15.43;6.32;;;10.40;93.80;;;;;;5033823;28;20156;-71
2022/03/04 11:03:37;;;;;;;22.23;7.15;;;10.00;93.80;;;;;;5030388;28;20021;-71
2022/03/04 11:06:11;;;;;;;22.20;7.97;;;9.40;95.20;;;;;;5031876;28;20022;-71
2022/03/04 11:08:37;;;;;;;17.75;6.82;;;9.60;94.30;;;;;;5024768;28;20041;-71
2022/03/04 11:11:04;;;;;;;20.83;7.00;;;9.00;94.80;;;;;;5028371;28;20871;-71
2022/03/04 11:13:32;;;;;;;16.63;5.60;;;9.50;94.50;;;;;;5030809;28;20025;-71
2022/03/04 11:15:58;;;;;;;19.13;6.05;;;9.70;95.60;;;;;;5035596;28;20108;-71
2022/03/04 11:18:24;;;;;;;21.75;6.63;;;9.30;93.90;;;;;;5033851;28;20491;-71
2022/03/04 11:20:55;;;;;;;20.13;7.18;;;9.60;93.60;;;;;;5037532;28;20039;-71
2022/03/04 11:23:32;;;;;;;21.30;8.27;;;9.60;94.00;;;;;;5029407;28;20036;-71
2022/03/04 11:26:00;;;;;;;14.85;5.20;;;9.50;93.90;;;;;;5040824;28;20086;-71
2022/03/04 11:28:38;;;;;;;17.80;6.80;;;10.00;93.50;;;;;;5035550;28;20033;-71
2022/03/04 11:31:12;;;;;;;16.50;6.07;;;9.80;92.60;;;;;;5041882;28;20051;-71
2022/03/04 11:33:56;;;;;;;13.27;4.88;;;10.50;91.40;;;;;;5048619;28;20032;-71
2022/03/04 11:36:25;;;;;;;17.75;6.10;;;12.60;91.10;;;;;;5035290;28;20108;-71
2022/03/04 11:38:54;;;;;;;19.83;6.45;;;12.00;84.70;;;;;;5045516;28;20121;-71
2022/03/04 11:41:19;;;;;;;19.15;6.22;;;13.20;84.00;;;;;;5035983;28;20033;-71
2022/03/04 11:43:51;;;;;;;19.80;6.35;;;11.60;87.90;;;;;;5044565;28;20044;-71
2022/03/04 11:46:22;;;;;;;18.23;6.15;;;12.50;84.50;;;;;;5035367;28;20064;-71
2022/03/04 11:49:26;;;;;;;15.77;6.13;;;11.80;89.50;;;;;;5036495;28;20046;-71
2022/03/04 11:52:10;;;;;;;13.70;4.90;;;11.00;88.10;;;;;;5031300;28;20033;-71
2022/03/04 11:54:44;;;;;;;16.83;6.22;;;12.30;88.20;;;;;;5041334;28;20025;-71
2022/03/04 11:57:20;;;;;;;16.05;5.65;;;12.20;85.90;;;;;;5038581;28;20033;-71
2022/03/04 11:59:55;;;;;;;19.85;5.80;;;14.80;85.30;;;;;;5036136;28;20060;-71
2022/03/04 12:02:20;;;;;;;20.20;6.85;;;15.60;78.90;;;;;;5035859;28;20029;-72
2022/03/04 12:04:46;;;;;;;18.30;5.03;;;14.70;76.90;;;;;;5038354;28;20508;-71
2022/03/04 12:07:12;;;;;;;14.88;6.10;;;15.10;81.60;;;;;;5042031;28;20033;-71
2022/03/04 12:09:46;;;;;;;15.43;5.60;;;14.80;77.60;;;;;;5042399;28;20017;-71
2022/03/04 12:12:20;;;;;;;18.90;6.70;;;13.80;82.00;;;;;;5033009;28;20163;-71
2022/03/04 12:14:46;;;;;;;13.55;4.63;;;13.20;83.40;;;;;;5033489;28;20025;-71
2022/03/04 12:17:12;;;;;;;17.33;5.53;;;14.00;85.10;;;;;;5038088;28;20044;-71
2022/03/04 12:19:37;;;;;;;21.38;7.15;;;15.70;78.20;;;;;;5038853;28;20393;-71
2022/03/04 12:22:04;;;;;;;22.17;7.03;;;13.40;79.40;;;;;;5042818;28;20038;-71
2022/03/04 12:24:32;;;;;;;17.10;5.82;;;14.80;79.80;;;;;;5042263;28;20021;-71
2022/03/04 12:26:59;;;;;;;16.05;6.13;;;15.10;74.90;;;;;;5043767;28;20424;-71
2022/03/04 12:29:46;;;;;;;15.93;5.85;;;14.10;78.10;;;;;;5036731;28;20041;-71
2022/03/04 12:32:13;;;;;;;18.52;6.28;;;14.80;78.90;;;;;;5041527;28;20166;-71
2022/03/04 12:34:52;;;;;;;17.40;6.28;;;13.70;78.90;;;;;;5045932;28;20025;-71
2022/03/04 12:37:19;;;;;;;19.33;5.55;;;13.00;78.80;;;;;;5043061;28;20377;-71
2022/03/04 12:39:50;;;;;;;14.75;5.53;;;13.60;80.00;;;;;;5042163;28;20029;-71
2022/03/04 12:42:17;;;;;;;15.63;5.30;;;13.50;78.40;;;;;;5041017;28;20044;-72
2022/03/04 12:44:43;;;;;;;12.45;3.97;;;13.80;81.40;;;;;;5045196;28;20123;-71